createdAt,value
2023-05-05T00:01:08.833Z,13.63
2023-05-05T00:03:35.685Z,11.65
2023-05-05T00:06:03.224Z,14.45
2023-05-05T00:08:30.092Z,14.32
2023-05-05T00:10:57.680Z,13.18
2023-05-05T00:13:24.566Z,15.88
2023-05-05T00:15:53.523Z,14.27
2023-05-05T00:18:21.339Z,13.75
2023-05-05T00:20:48.564Z,14.52
2023-05-05T00:23:16.547Z,17.02
2023-05-05T00:25:43.176Z,13.52
2023-05-05T00:28:09.934Z,14.55
2023-05-05T00:30:37.578Z,13.52
2023-05-05T00:33:04.426Z,15.65
2023-05-05T00:35:31.151Z,16.70
2023-05-05T00:37:58.229Z,12.85
2023-05-05T00:40:25.354Z,13.10
2023-05-05T00:42:52.262Z,16.40
2023-05-05T00:45:20.071Z,14.02
2023-05-05T00:47:51.448Z,14.93
2023-05-05T00:50:23.884Z,13.73
2023-05-05T00:52:52.692Z,14.30
2023-05-05T00:55:19.339Z,13.18
2023-05-05T00:57:46.677Z,14.02
2023-05-05T01:00:13.503Z,14.32
2023-05-05T01:02:41.374Z,15.77
2023-05-05T01:05:09.635Z,15.35
2023-05-05T01:07:59.462Z,16.02
2023-05-05T01:10:32.283Z,15.93
2023-05-05T01:13:20.630Z,16.13
2023-05-05T01:15:57.513Z,13.88
2023-05-05T01:18:29.396Z,15.85
2023-05-05T01:21:16.309Z,17.30
2023-05-05T01:23:42.810Z,14.25
2023-05-05T01:26:34.792Z,14.70
2023-05-05T01:29:32.414Z,17.75
2023-05-05T01:32:06.436Z,17.00
2023-05-05T01:34:40.198Z,15.25
2023-05-05T01:37:22.360Z,15.50
2023-05-05T01:39:57.777Z,18.00
2023-05-05T01:42:27.104Z,17.00
2023-05-05T01:44:54.601Z,16.33
2023-05-05T01:47:23.190Z,14.57
2023-05-05T01:49:50.455Z,15.73
2023-05-05T01:52:17.913Z,16.40
2023-05-05T01:54:45.699Z,17.13
2023-05-05T01:57:13.698Z,15.85
2023-05-05T01:59:40.507Z,15.48
2023-05-05T02:02:10.229Z,13.63
2023-05-05T02:04:42.472Z,14.93
2023-05-05T02:07:12.715Z,15.57
2023-05-05T02:09:40.744Z,15.77
2023-05-05T02:12:08.354Z,14.70
2023-05-05T02:14:36.296Z,14.48
2023-05-05T02:17:04.074Z,13.88
2023-05-05T02:19:34.677Z,13.57
2023-05-05T02:22:01.224Z,14.55
2023-05-05T02:24:27.887Z,12.30
2023-05-05T02:26:56.878Z,13.75
2023-05-05T02:29:32.705Z,12.68
2023-05-05T02:32:06.994Z,12.10
2023-05-05T02:37:07.681Z,13.27
2023-05-05T02:39:47.654Z,12.52
2023-05-05T02:42:18.460Z,11.90
2023-05-05T02:44:46.265Z,11.43
2023-05-05T02:47:12.774Z,13.15
2023-05-05T02:49:39.302Z,11.45
2023-05-05T02:52:05.979Z,12.85
2023-05-05T02:54:33.571Z,10.52
2023-05-05T02:57:00.735Z,10.50
2023-05-05T02:59:38.153Z,11.38
2023-05-05T03:02:13.413Z,10.20
2023-05-05T03:04:51.797Z,10.13
2023-05-05T03:07:41.013Z,11.25
2023-05-05T03:10:12.051Z,11.70
2023-05-05T03:13:01.382Z,10.43
2023-05-05T03:15:35.980Z,11.20
2023-05-05T03:18:03.983Z,10.32
2023-05-05T03:20:31.196Z,10.88
2023-05-05T03:22:57.810Z,11.57
2023-05-05T03:25:41.973Z,11.23
2023-05-05T03:28:08.454Z,9.95
2023-05-05T03:30:34.938Z,10.57
2023-05-05T03:33:01.446Z,11.50
2023-05-05T03:35:28.106Z,11.98
2023-05-05T03:37:55.760Z,11.00
2023-05-05T03:40:36.400Z,10.85
2023-05-05T03:43:09.928Z,9.07
2023-05-05T03:45:36.472Z,11.10
2023-05-05T03:48:03.139Z,13.98
2023-05-05T03:50:29.651Z,9.20
2023-05-05T03:52:56.165Z,10.18
2023-05-05T03:55:22.753Z,11.45
2023-05-05T03:57:49.211Z,11.15
2023-05-05T04:00:16.022Z,11.40
2023-05-05T04:02:43.673Z,9.80
2023-05-05T04:05:10.350Z,10.68
2023-05-05T04:07:36.831Z,10.48
2023-05-05T04:10:03.648Z,9.57
2023-05-05T04:12:30.220Z,10.63
2023-05-05T04:14:56.809Z,14.40
2023-05-05T04:17:23.235Z,10.93
2023-05-05T04:19:49.781Z,10.38
2023-05-05T04:22:16.830Z,10.30
2023-05-05T04:24:43.309Z,12.07
2023-05-05T04:27:09.747Z,11.88
2023-05-05T04:29:36.171Z,12.07
2023-05-05T04:32:02.582Z,11.57
2023-05-05T04:34:29.189Z,11.10
2023-05-05T04:36:55.713Z,12.27
2023-05-05T04:39:22.276Z,11.60
2023-05-05T04:41:48.955Z,12.13
2023-05-05T04:44:15.828Z,10.95
2023-05-05T04:46:42.335Z,12.65
2023-05-05T04:49:09.287Z,15.30
2023-05-05T04:51:35.868Z,10.82
2023-05-05T04:54:02.367Z,11.60
2023-05-05T04:56:31.327Z,11.02
2023-05-05T04:58:57.760Z,11.15
2023-05-05T05:01:24.231Z,13.10
2023-05-05T05:03:51.162Z,11.50
2023-05-05T05:06:17.624Z,11.15
2023-05-05T05:08:44.113Z,12.13
2023-05-05T05:11:10.758Z,12.98
2023-05-05T05:13:37.259Z,12.55
2023-05-05T05:16:03.835Z,12.05
2023-05-05T05:18:30.255Z,13.77
2023-05-05T05:20:56.759Z,11.95
2023-05-05T05:23:23.250Z,13.52
2023-05-05T05:25:49.934Z,13.93
2023-05-05T05:28:16.459Z,15.43
2023-05-05T05:30:42.994Z,14.20
2023-05-05T05:33:09.486Z,12.55
2023-05-05T05:35:36.150Z,13.85
2023-05-05T05:38:02.591Z,12.98
2023-05-05T05:40:29.052Z,13.40
2023-05-05T05:42:56.096Z,16.38
2023-05-05T05:45:22.592Z,15.65
2023-05-05T05:47:49.480Z,14.95
2023-05-05T05:50:15.939Z,15.05
2023-05-05T05:52:42.573Z,15.48
2023-05-05T05:55:09.537Z,15.43
2023-05-05T05:57:36.000Z,16.10
2023-05-05T06:00:02.619Z,15.15
2023-05-05T06:02:29.402Z,17.88
2023-05-05T06:04:56.089Z,13.90
2023-05-05T06:07:22.598Z,17.50
2023-05-05T06:09:49.062Z,16.02
2023-05-05T06:12:15.626Z,16.60
2023-05-05T06:14:42.215Z,17.80
2023-05-05T06:17:08.716Z,15.85
2023-05-05T06:19:36.877Z,17.33
2023-05-05T06:22:03.371Z,13.23
2023-05-05T06:24:31.960Z,13.68
2023-05-05T06:27:02.301Z,13.65
2023-05-05T06:29:28.798Z,13.45
2023-05-05T06:31:55.747Z,13.02
2023-05-05T06:34:22.243Z,12.23
2023-05-05T06:36:48.838Z,13.20
2023-05-05T06:39:16.190Z,12.15
2023-05-05T06:41:42.828Z,11.45
2023-05-05T06:44:10.580Z,11.48
2023-05-05T06:46:37.340Z,10.98
2023-05-05T06:49:03.830Z,10.88
2023-05-05T06:51:31.301Z,13.40
2023-05-05T06:53:57.821Z,10.45
2023-05-05T06:56:24.423Z,10.70
2023-05-05T06:58:50.934Z,11.18
2023-05-05T07:01:17.554Z,10.88
2023-05-05T07:03:44.785Z,11.00
2023-05-05T07:06:11.410Z,12.15
2023-05-05T07:08:37.961Z,10.18
2023-05-05T07:11:04.551Z,10.93
2023-05-05T07:13:31.216Z,10.35
2023-05-05T07:15:57.787Z,10.43
2023-05-05T07:18:24.296Z,10.40
2023-05-05T07:20:50.898Z,10.52
2023-05-05T07:23:17.362Z,10.63
2023-05-05T07:25:44.104Z,8.43
2023-05-05T07:28:11.318Z,9.57
2023-05-05T07:30:37.780Z,10.45
2023-05-05T07:33:04.318Z,12.05
2023-05-05T07:35:30.943Z,9.75
2023-05-05T07:37:57.388Z,10.07
2023-05-05T07:40:23.865Z,9.77
2023-05-05T07:42:50.461Z,12.25
2023-05-05T07:45:17.023Z,9.65
2023-05-05T07:47:43.757Z,8.15
2023-05-05T07:50:10.783Z,6.35
2023-05-05T07:52:46.100Z,6.80
2023-05-05T07:55:16.488Z,7.57
2023-05-05T07:57:42.997Z,8.25
2023-05-05T08:00:10.871Z,9.30
2023-05-05T08:05:04.680Z,8.77
2023-05-05T08:07:31.250Z,9.25
2023-05-05T08:09:57.768Z,8.82
2023-05-05T08:12:24.872Z,7.32
2023-05-05T08:14:51.595Z,8.55
2023-05-05T08:17:18.460Z,6.93
2023-05-05T08:19:44.886Z,9.82
2023-05-05T08:22:11.416Z,10.70
2023-05-05T08:24:37.834Z,7.40
2023-05-05T08:27:04.313Z,6.65
2023-05-05T08:29:30.913Z,7.82
2023-05-05T08:31:57.474Z,7.20
2023-05-05T08:34:24.122Z,6.72
2023-05-05T08:36:51.059Z,6.93
2023-05-05T08:39:17.586Z,6.20
2023-05-05T08:41:45.331Z,7.38
2023-05-05T08:44:11.991Z,6.50
2023-05-05T08:46:39.085Z,8.32
2023-05-05T08:49:08.890Z,7.30
2023-05-05T08:51:43.143Z,7.75
2023-05-05T08:54:15.229Z,7.90
2023-05-05T08:56:42.648Z,5.70
2023-05-05T08:59:11.916Z,7.53
2023-05-05T09:01:39.387Z,5.80
2023-05-05T09:04:07.756Z,4.78
2023-05-05T09:06:35.600Z,5.97
2023-05-05T09:09:02.083Z,5.95
2023-05-05T09:11:28.599Z,5.55
2023-05-05T09:13:55.850Z,6.00
2023-05-05T09:16:22.646Z,6.50
2023-05-05T09:18:49.241Z,7.10
2023-05-05T09:21:22.678Z,5.65
2023-05-05T09:24:18.789Z,5.88
2023-05-05T09:26:46.855Z,12.02
2023-05-05T09:29:21.545Z,5.13
2023-05-05T09:32:11.183Z,7.43
2023-05-05T09:34:38.087Z,5.95
2023-05-05T09:37:05.877Z,8.18
2023-05-05T09:39:32.451Z,4.68
2023-05-05T09:41:58.940Z,6.47
2023-05-05T09:44:36.296Z,6.70
2023-05-05T09:47:05.406Z,6.80
2023-05-05T09:49:38.399Z,6.03
2023-05-05T09:52:17.709Z,6.35
2023-05-05T09:54:44.272Z,8.77
2023-05-05T09:57:29.446Z,7.82
2023-05-05T09:59:58.061Z,8.20
2023-05-05T10:02:35.498Z,5.40
2023-05-05T10:05:11.377Z,6.20
2023-05-05T10:07:39.485Z,7.60
2023-05-05T10:10:08.443Z,10.43
2023-05-05T10:12:36.919Z,9.10
2023-05-05T10:15:05.292Z,9.70
2023-05-05T10:17:35.773Z,9.32
2023-05-05T10:20:04.134Z,4.95
2023-05-05T10:22:35.055Z,5.07
2023-05-05T10:25:10.854Z,11.68
2023-05-05T10:27:51.327Z,10.73
2023-05-05T10:30:24.002Z,10.63
2023-05-05T10:33:05.039Z,8.10
2023-05-05T10:35:43.550Z,5.95
2023-05-05T10:38:12.632Z,5.95
2023-05-05T10:40:46.524Z,6.20
2023-05-05T10:43:14.462Z,4.97
2023-05-05T10:45:42.863Z,3.65
2023-05-05T10:48:14.734Z,4.28
2023-05-05T10:50:56.571Z,4.40
2023-05-05T10:53:32.654Z,3.47
2023-05-05T10:56:09.357Z,5.88
2023-05-05T10:58:47.017Z,4.93
2023-05-05T11:04:20.628Z,4.60
2023-05-05T11:07:14.958Z,5.75
2023-05-05T11:10:01.228Z,5.47
2023-05-05T11:12:29.514Z,4.75
2023-05-05T11:17:48.619Z,6.05
2023-05-05T11:20:15.361Z,6.38
2023-05-05T11:23:03.595Z,6.32
2023-05-05T11:25:36.562Z,5.88
2023-05-05T11:28:12.701Z,5.90
2023-05-05T11:30:58.548Z,4.78
2023-05-05T11:33:36.074Z,5.63
2023-05-05T11:36:06.647Z,6.05
2023-05-05T11:39:12.797Z,6.60
2023-05-05T11:41:53.954Z,7.75
2023-05-05T11:44:30.197Z,12.68
2023-05-05T11:47:02.901Z,14.20
2023-05-05T11:49:37.138Z,13.13
2023-05-05T11:52:06.108Z,9.63
2023-05-05T11:54:34.416Z,12.85
2023-05-05T11:59:37.349Z,11.90
2023-05-05T12:02:04.716Z,11.32
2023-05-05T12:04:31.790Z,10.30
2023-05-05T12:06:59.354Z,13.27
2023-05-05T12:09:26.959Z,10.85
2023-05-05T12:11:58.408Z,10.80
2023-05-05T12:14:25.694Z,9.00
2023-05-05T12:17:08.522Z,7.65
2023-05-05T12:19:36.156Z,7.85
2023-05-05T12:22:04.867Z,9.00
2023-05-05T12:24:31.556Z,8.07
2023-05-05T12:27:08.465Z,8.95
2023-05-05T12:29:34.869Z,8.48
2023-05-05T12:32:01.398Z,9.48
2023-05-05T12:34:28.153Z,9.40
2023-05-05T12:36:54.866Z,9.05
2023-05-05T12:39:21.592Z,9.27
2023-05-05T12:41:48.121Z,10.02
2023-05-05T12:44:14.568Z,8.02
2023-05-05T12:46:48.523Z,7.15
2023-05-05T12:49:15.387Z,9.85
2023-05-05T12:51:56.396Z,9.48
2023-05-05T12:54:25.078Z,9.73
2023-05-05T12:56:51.689Z,7.45
2023-05-05T12:59:21.185Z,8.85
2023-05-05T13:01:53.937Z,8.25
2023-05-05T13:04:22.902Z,8.07
2023-05-05T13:06:53.049Z,9.18
2023-05-05T13:09:25.748Z,10.10
2023-05-05T13:11:54.440Z,8.27
2023-05-05T13:14:21.554Z,8.95
2023-05-05T13:16:48.153Z,8.55
2023-05-05T13:19:14.726Z,11.55
2023-05-05T13:21:41.797Z,10.85
2023-05-05T13:24:23.688Z,8.93
2023-05-05T13:29:23.587Z,7.60
2023-05-05T13:31:52.750Z,7.82
2023-05-05T13:34:19.215Z,7.38
2023-05-05T13:36:45.902Z,8.63
2023-05-05T13:39:12.671Z,9.75
2023-05-05T13:41:40.496Z,9.07
2023-05-05T13:44:06.937Z,10.00
2023-05-05T13:46:33.415Z,9.15
2023-05-05T13:49:00.353Z,8.10
2023-05-05T13:51:26.880Z,7.10
2023-05-05T13:53:53.370Z,6.15
2023-05-05T13:56:19.923Z,6.43
2023-05-05T13:58:46.396Z,8.60
2023-05-05T14:01:12.901Z,10.57
2023-05-05T14:03:39.801Z,5.90
2023-05-05T14:06:07.485Z,7.47
2023-05-05T14:08:34.070Z,6.00
2023-05-05T14:11:00.544Z,5.47
2023-05-05T14:13:26.979Z,7.10
2023-05-05T14:15:53.829Z,5.03
2023-05-05T14:18:20.819Z,4.85
2023-05-05T14:20:47.262Z,4.22
2023-05-05T14:23:13.704Z,4.90
2023-05-05T14:25:40.312Z,4.75
2023-05-05T14:28:07.334Z,4.40
2023-05-05T14:30:33.749Z,6.15
2023-05-05T14:33:01.226Z,4.28
2023-05-05T14:35:27.897Z,3.75
2023-05-05T14:37:54.372Z,4.93
2023-05-05T14:40:20.907Z,4.78
2023-05-05T14:42:47.315Z,4.65
2023-05-05T14:45:13.720Z,4.63
2023-05-05T14:47:40.377Z,4.80
2023-05-05T14:50:09.661Z,5.28
2023-05-05T14:52:39.064Z,4.38
2023-05-05T14:55:06.846Z,4.45
2023-05-05T14:57:33.526Z,4.38
2023-05-05T14:59:59.925Z,3.63
2023-05-05T15:02:26.568Z,5.28
2023-05-05T15:04:53.141Z,6.40
2023-05-05T15:07:20.525Z,5.07
2023-05-05T15:09:47.022Z,5.35
2023-05-05T15:12:13.603Z,7.38
2023-05-05T15:14:40.803Z,6.00
2023-05-05T15:17:07.363Z,5.05
2023-05-05T15:19:33.800Z,6.72
2023-05-05T15:22:00.272Z,5.95
2023-05-05T15:24:26.778Z,6.38
2023-05-05T15:26:53.292Z,4.70
2023-05-05T15:29:19.866Z,5.50
2023-05-05T15:31:46.338Z,4.25
2023-05-05T15:34:12.833Z,5.32
2023-05-05T15:36:39.294Z,6.72
2023-05-05T15:39:05.782Z,5.47
2023-05-05T15:41:34.337Z,7.18
2023-05-05T15:44:02.109Z,5.07
2023-05-05T15:46:32.774Z,7.38
2023-05-05T15:48:59.444Z,5.57
2023-05-05T15:51:26.247Z,6.88
2023-05-05T15:53:53.338Z,7.78
2023-05-05T15:56:19.866Z,6.82
2023-05-05T15:58:46.420Z,8.90
2023-05-05T16:01:12.961Z,6.53
2023-05-05T16:03:39.453Z,6.72
2023-05-05T16:06:06.284Z,5.13
2023-05-05T16:08:32.826Z,5.15
2023-05-05T16:10:59.272Z,6.85
2023-05-05T16:13:25.692Z,4.95
2023-05-05T16:15:52.136Z,3.92
2023-05-05T16:18:18.545Z,5.38
2023-05-05T16:20:45.184Z,4.20
2023-05-05T16:23:11.668Z,4.90
2023-05-05T16:25:38.177Z,5.88
2023-05-05T16:28:04.791Z,5.40
2023-05-05T16:30:31.252Z,4.68
2023-05-05T16:32:57.786Z,4.88
2023-05-05T16:35:24.334Z,4.03
2023-05-05T16:37:50.833Z,4.85
2023-05-05T16:40:17.410Z,5.70
2023-05-05T16:42:44.458Z,4.05
2023-05-05T16:45:11.523Z,3.72
2023-05-05T16:47:38.356Z,5.22
2023-05-05T16:50:05.433Z,5.05
2023-05-05T16:52:31.887Z,4.38
2023-05-05T16:54:58.384Z,6.80
2023-05-05T16:57:25.006Z,4.40
2023-05-05T16:59:54.393Z,4.53
2023-05-05T17:02:20.822Z,3.78
2023-05-05T17:04:47.570Z,3.30
2023-05-05T17:07:14.046Z,3.95
2023-05-05T17:09:40.480Z,3.97
2023-05-05T17:12:07.151Z,3.22
2023-05-05T17:14:33.723Z,3.45
2023-05-05T17:17:00.272Z,4.82
2023-05-05T17:19:26.838Z,3.03
2023-05-05T17:21:54.233Z,3.55
2023-05-05T17:24:20.878Z,3.65
2023-05-05T17:26:47.654Z,4.43
2023-05-05T17:29:15.241Z,3.97
2023-05-05T17:31:41.973Z,3.17
2023-05-05T17:34:08.515Z,4.00
2023-05-05T17:36:35.444Z,3.17
2023-05-05T17:39:02.006Z,5.05
2023-05-05T17:41:28.471Z,3.80
2023-05-05T17:43:55.692Z,4.18
2023-05-05T17:46:22.292Z,6.20
2023-05-05T17:48:48.922Z,3.75
2023-05-05T17:51:15.424Z,4.05
2023-05-05T17:53:41.850Z,4.70
2023-05-05T17:56:09.096Z,5.45
2023-05-05T17:58:35.792Z,3.90
2023-05-05T18:01:02.317Z,5.78
2023-05-05T18:03:29.251Z,4.50
2023-05-05T18:05:56.055Z,4.63
2023-05-05T18:08:22.504Z,4.80
2023-05-05T18:10:49.061Z,9.20
2023-05-05T18:13:15.845Z,5.97
2023-05-05T18:15:42.376Z,5.95
2023-05-05T18:18:08.888Z,3.80
2023-05-05T18:20:35.354Z,4.82
2023-05-05T18:23:01.887Z,5.13
2023-05-05T18:25:28.463Z,6.00
2023-05-05T18:27:54.917Z,6.30
2023-05-05T18:30:21.427Z,4.93
2023-05-05T18:32:48.811Z,5.95
2023-05-05T18:35:15.501Z,5.20
2023-05-05T18:37:42.258Z,5.03
2023-05-05T18:40:10.121Z,4.30
2023-05-05T18:42:36.635Z,5.68
2023-05-05T18:45:03.273Z,5.38
2023-05-05T18:47:29.778Z,4.05
2023-05-05T18:49:56.313Z,4.72
2023-05-05T18:52:22.919Z,4.25
2023-05-05T18:54:49.393Z,4.40
2023-05-05T18:57:15.861Z,6.88
2023-05-05T18:59:42.349Z,7.57
2023-05-05T19:02:08.800Z,4.88
2023-05-05T19:04:37.842Z,5.25
2023-05-05T19:07:04.773Z,5.35
2023-05-05T19:09:31.282Z,5.35
2023-05-05T19:11:57.733Z,10.07
2023-05-05T19:14:24.518Z,4.78
2023-05-05T19:16:51.370Z,5.60
2023-05-05T19:19:18.246Z,4.00
2023-05-05T19:21:44.699Z,5.55
2023-05-05T19:24:11.651Z,5.53
2023-05-05T19:26:38.407Z,4.70
2023-05-05T19:29:04.888Z,4.90
2023-05-05T19:31:31.565Z,5.57
2023-05-05T19:34:00.932Z,5.47
2023-05-05T19:36:31.594Z,4.93
2023-05-05T19:39:03.863Z,6.20
2023-05-05T19:41:31.250Z,8.60
2023-05-05T19:43:57.760Z,10.75
2023-05-05T19:46:27.390Z,10.05
2023-05-05T19:48:53.953Z,9.80
2023-05-05T19:51:20.678Z,9.73
2023-05-05T19:53:47.171Z,9.98
2023-05-05T19:56:13.695Z,9.38
2023-05-05T19:58:54.556Z,11.85
2023-05-05T20:01:21.229Z,8.68
2023-05-05T20:03:47.966Z,10.13
2023-05-05T20:06:14.483Z,12.20
2023-05-05T20:08:40.996Z,10.30
2023-05-05T20:11:07.472Z,11.50
2023-05-05T20:13:34.371Z,10.65
2023-05-05T20:16:01.033Z,11.20
2023-05-05T20:18:27.611Z,9.10
2023-05-05T20:20:54.233Z,11.60
2023-05-05T20:23:20.876Z,13.38
2023-05-05T20:25:47.395Z,12.77
2023-05-05T20:28:13.858Z,12.35
2023-05-05T20:30:40.535Z,12.57
2023-05-05T20:33:06.993Z,13.13
2023-05-05T20:35:33.455Z,12.65
2023-05-05T20:37:59.969Z,13.98
2023-05-05T20:40:26.674Z,11.65
2023-05-05T20:42:53.104Z,10.95
2023-05-05T20:45:19.594Z,10.57
2023-05-05T20:47:46.191Z,10.05
2023-05-05T20:50:12.889Z,11.77
2023-05-05T20:52:39.510Z,10.43
2023-05-05T20:55:06.597Z,8.40
2023-05-05T20:57:33.900Z,8.75
2023-05-05T21:00:00.427Z,11.10
2023-05-05T21:02:26.956Z,10.45
2023-05-05T21:04:53.465Z,9.00
2023-05-05T21:07:20.013Z,9.63
2023-05-05T21:09:46.966Z,10.63
2023-05-05T21:12:13.438Z,9.65
2023-05-05T21:14:44.578Z,10.73
2023-05-05T21:17:11.049Z,9.07
2023-05-05T21:19:37.571Z,8.35
2023-05-05T21:22:04.403Z,8.88
2023-05-05T21:24:31.136Z,10.77
2023-05-05T21:26:57.589Z,8.15
2023-05-05T21:29:27.210Z,8.75
2023-05-05T21:31:53.708Z,9.30
2023-05-05T21:34:20.242Z,9.82
2023-05-05T21:36:46.632Z,11.10
2023-05-05T21:39:13.096Z,12.07
2023-05-05T21:41:39.496Z,12.95
2023-05-05T21:44:05.943Z,12.43
2023-05-05T21:46:32.361Z,11.25
2023-05-05T21:48:58.849Z,13.02
2023-05-05T21:51:25.460Z,12.00
2023-05-05T21:53:51.979Z,12.07
2023-05-05T21:56:18.485Z,9.85
2023-05-05T21:58:44.967Z,9.80
2023-05-05T22:01:12.036Z,11.55
2023-05-05T22:03:38.661Z,13.68
2023-05-05T22:06:05.483Z,12.20
2023-05-05T22:08:32.005Z,16.25
2023-05-05T22:10:58.397Z,20.20
2023-05-05T22:13:24.925Z,22.95
2023-05-05T22:15:51.597Z,20.63
2023-05-05T22:18:18.059Z,20.45
2023-05-05T22:20:44.588Z,24.52
2023-05-05T22:23:11.133Z,21.30
2023-05-05T22:25:37.593Z,17.83
2023-05-05T22:28:04.327Z,15.55
2023-05-05T22:30:31.119Z,14.80
2023-05-05T22:32:57.655Z,13.60
2023-05-05T22:35:24.421Z,11.88
2023-05-05T22:37:50.944Z,11.95
2023-05-05T22:40:17.434Z,13.98
2023-05-05T22:42:44.014Z,13.18
2023-05-05T22:45:11.199Z,11.48
2023-05-05T22:47:37.878Z,11.77
2023-05-05T22:50:04.571Z,10.07
2023-05-05T22:52:31.083Z,9.27
2023-05-05T22:54:57.553Z,9.23
2023-05-05T22:57:24.310Z,9.10
2023-05-05T22:59:51.052Z,9.77
2023-05-05T23:02:17.498Z,7.82
2023-05-05T23:04:44.896Z,7.35
2023-05-05T23:07:12.886Z,7.95
2023-05-05T23:09:40.698Z,9.07
2023-05-05T23:12:07.304Z,7.68
2023-05-05T23:14:33.959Z,8.60
2023-05-05T23:17:00.853Z,9.50
2023-05-05T23:19:29.087Z,9.82
2023-05-05T23:21:55.714Z,9.27
2023-05-05T23:24:22.272Z,10.95
2023-05-05T23:26:48.722Z,9.05
2023-05-05T23:29:15.197Z,10.38
2023-05-05T23:31:41.703Z,9.57
2023-05-05T23:34:08.503Z,10.35
2023-05-05T23:36:35.116Z,10.60
2023-05-05T23:39:01.536Z,9.82
2023-05-05T23:41:28.040Z,10.07
2023-05-05T23:43:54.530Z,11.02
2023-05-05T23:46:20.991Z,10.73
2023-05-05T23:48:47.388Z,12.02
2023-05-05T23:51:13.877Z,12.35
2023-05-05T23:53:40.378Z,12.25
2023-05-05T23:56:07.776Z,12.50
2023-05-05T23:58:34.279Z,13.18
